createdAt,value
2022-11-26T00:04:39.450Z,99368.06
2022-11-26T00:09:42.706Z,99368.72
2022-11-26T00:14:47.997Z,99369.78
2022-11-26T00:19:51.372Z,99380.44
2022-11-26T00:24:54.709Z,99382.25
2022-11-26T00:29:58.957Z,99389.25
2022-11-26T00:35:01.784Z,99386.66
2022-11-26T00:40:05.235Z,99388.88
2022-11-26T00:45:16.921Z,99404.50
2022-11-26T00:50:22.409Z,99414.78
2022-11-26T00:55:30.922Z,99419.22
2022-11-26T01:00:36.349Z,99421.16
2022-11-26T01:05:39.240Z,99429.72
2022-11-26T01:10:42.022Z,99437.09
2022-11-26T01:15:46.213Z,99447.84
2022-11-26T01:20:49.213Z,99449.88
2022-11-26T01:25:51.918Z,99460.00
2022-11-26T01:30:55.994Z,99472.72
2022-11-26T01:35:58.844Z,99477.78
2022-11-26T01:41:12.512Z,99480.63
2022-11-26T01:46:18.637Z,99486.38
2022-11-26T01:51:26.763Z,99490.25
2022-11-26T01:56:34.902Z,99504.75
2022-11-26T02:01:39.988Z,99500.13
2022-11-26T02:06:44.642Z,99501.41
2022-11-26T02:11:47.674Z,99505.25
2022-11-26T02:17:11.363Z,99520.91
2022-11-26T02:22:31.824Z,99527.91
2022-11-26T02:28:05.334Z,99527.97
2022-11-26T02:33:12.986Z,99522.78
2022-11-26T02:38:20.555Z,99526.53
2022-11-26T02:43:25.344Z,99534.94
2022-11-26T02:48:33.257Z,99538.81
2022-11-26T02:53:37.824Z,99542.84
2022-11-26T02:58:40.904Z,99535.53
2022-11-26T03:03:50.082Z,99546.88
2022-11-26T03:08:55.711Z,99531.72
2022-11-26T03:13:58.599Z,99535.28
2022-11-26T03:19:02.865Z,99533.56
2022-11-26T03:24:07.247Z,99527.28
2022-11-26T03:29:10.117Z,99529.78
2022-11-26T03:34:14.285Z,99526.72
2022-11-26T03:39:17.006Z,99530.56
2022-11-26T03:44:19.784Z,99526.00
2022-11-26T03:49:23.940Z,99526.31
2022-11-26T03:54:27.961Z,99521.69
2022-11-26T03:59:30.704Z,99532.66
2022-11-26T04:04:34.951Z,99527.63
2022-11-26T04:09:38.111Z,99535.75
2022-11-26T04:14:41.200Z,99537.69
2022-11-26T04:19:45.621Z,99540.78
2022-11-26T04:24:48.364Z,99558.66
2022-11-26T04:29:51.068Z,99560.72
2022-11-26T04:34:55.201Z,99565.06
2022-11-26T04:39:58.317Z,99558.47
2022-11-26T04:45:01.196Z,99577.09
2022-11-26T04:50:06.185Z,99587.84
2022-11-26T04:55:09.659Z,99597.47
2022-11-26T05:00:13.685Z,99608.13
2022-11-26T05:05:18.184Z,99613.50
2022-11-26T05:10:21.206Z,99633.16
2022-11-26T05:15:23.941Z,99638.47
2022-11-26T05:20:28.013Z,99641.28
2022-11-26T05:25:30.873Z,99642.69
2022-11-26T05:30:33.594Z,99648.16
2022-11-26T05:35:38.884Z,99644.84
2022-11-26T05:40:41.697Z,99642.22
2022-11-26T05:45:44.652Z,99651.91
2022-11-26T05:50:53.194Z,99657.97
2022-11-26T05:55:57.416Z,99672.09
2022-11-26T06:01:00.250Z,99676.06
2022-11-26T06:06:04.896Z,99675.03
2022-11-26T06:11:07.734Z,99672.44
2022-11-26T06:16:10.788Z,99676.91
2022-11-26T06:21:14.999Z,99686.72
2022-11-26T06:26:17.732Z,99675.38
2022-11-26T06:31:20.537Z,99679.19
2022-11-26T06:36:25.535Z,99693.34
2022-11-26T06:41:28.242Z,99714.38
2022-11-26T06:46:31.395Z,99712.75
2022-11-26T06:51:35.629Z,99718.75
2022-11-26T06:56:39.380Z,99724.81
2022-11-26T07:01:42.258Z,99737.03
2022-11-26T07:06:47.064Z,99742.78
2022-11-26T07:11:50.112Z,99750.97
2022-11-26T07:16:52.828Z,99753.53
2022-11-26T07:21:57.629Z,99762.09
2022-11-26T07:27:00.444Z,99760.63
2022-11-26T07:32:04.004Z,99771.56
2022-11-26T07:37:08.273Z,99774.44
2022-11-26T07:42:11.021Z,99770.97
2022-11-26T07:47:13.837Z,99777.34
2022-11-26T07:52:18.086Z,99771.81
2022-11-26T07:57:22.480Z,99778.59
2022-11-26T08:02:25.416Z,99777.81
2022-11-26T08:07:29.832Z,99788.66
2022-11-26T08:12:32.674Z,99797.25
2022-11-26T08:17:35.453Z,99809.41
2022-11-26T08:22:39.658Z,99823.66
2022-11-26T08:27:42.535Z,99832.44
2022-11-26T08:32:45.350Z,99830.66
2022-11-26T08:37:49.512Z,99830.72
2022-11-26T08:42:52.322Z,99840.69
2022-11-26T08:47:55.260Z,99842.78
2022-11-26T08:52:59.440Z,99837.81
2022-11-26T08:58:02.455Z,99832.53
2022-11-26T09:03:05.471Z,99836.06
2022-11-26T09:08:09.781Z,99845.63
2022-11-26T09:13:15.126Z,99835.19
2022-11-26T09:18:20.190Z,99841.00
2022-11-26T09:23:24.354Z,99840.81
2022-11-26T09:28:28.403Z,99840.91
2022-11-26T09:33:31.843Z,99834.81
2022-11-26T09:38:37.097Z,99826.16
2022-11-26T09:43:53.531Z,99838.50
2022-11-26T09:49:02.606Z,99840.13
2022-11-26T09:54:11.858Z,99841.16
2022-11-26T09:59:18.896Z,99841.72
2022-11-26T10:04:28.017Z,99843.47
2022-11-26T10:09:57.591Z,99826.63
2022-11-26T10:15:09.838Z,99836.47
2022-11-26T10:20:50.585Z,99836.19
2022-11-26T10:25:59.507Z,99844.28
2022-11-26T10:31:04.186Z,99846.31
2022-11-26T10:36:17.555Z,99846.09
2022-11-26T10:41:23.125Z,99835.69
2022-11-26T10:46:35.148Z,99833.41
2022-11-26T10:51:38.500Z,99824.34
2022-11-26T10:56:46.330Z,99825.16
2022-11-26T11:01:51.686Z,99827.25
2022-11-26T11:06:58.965Z,99832.38
2022-11-26T11:12:19.764Z,99824.81
2022-11-26T11:17:41.114Z,99833.88
2022-11-26T11:22:44.723Z,99829.03
2022-11-26T11:27:49.900Z,99832.69
2022-11-26T11:32:56.751Z,99828.50
2022-11-26T11:38:00.005Z,99828.97
2022-11-26T11:43:07.644Z,99823.03
2022-11-26T11:48:22.831Z,99825.06
2022-11-26T11:53:37.008Z,99812.00
2022-11-26T11:58:58.810Z,99813.94
2022-11-26T12:04:21.068Z,99831.19
2022-11-26T12:09:28.148Z,99837.81
2022-11-26T12:14:39.925Z,99839.97
2022-11-26T12:19:49.672Z,99838.31
2022-11-26T12:24:57.588Z,99834.28
2022-11-26T12:30:06.181Z,99826.06
2022-11-26T12:35:16.685Z,99819.22
2022-11-26T12:40:30.044Z,99824.22
2022-11-26T12:45:44.562Z,99834.88
2022-11-26T12:50:52.774Z,99830.06
2022-11-26T12:56:01.800Z,99825.06
2022-11-26T13:01:06.394Z,99826.22
2022-11-26T13:06:21.923Z,99820.28
2022-11-26T13:11:35.644Z,99815.44
2022-11-26T13:16:45.954Z,99814.97
2022-11-26T13:22:05.934Z,99818.47
2022-11-26T13:27:36.416Z,99812.72
2022-11-26T13:33:03.893Z,99804.06
2022-11-26T13:38:21.126Z,99804.84
2022-11-26T13:43:53.629Z,99806.13
2022-11-26T13:49:02.906Z,99803.13
2022-11-26T13:54:12.737Z,99816.09
2022-11-26T13:59:21.657Z,99820.75
2022-11-26T14:04:54.353Z,99820.78
2022-11-26T14:10:02.084Z,99827.84
2022-11-26T14:15:35.261Z,99824.97
2022-11-26T14:21:13.833Z,99821.66
2022-11-26T14:26:20.036Z,99813.50
2022-11-26T14:31:25.177Z,99807.66
2022-11-26T14:36:31.321Z,99797.38
2022-11-26T14:41:35.976Z,99793.22
2022-11-26T14:46:39.457Z,99784.13
2022-11-26T14:51:45.825Z,99794.56
2022-11-26T14:56:48.733Z,99795.34
2022-11-26T15:01:51.590Z,99782.41
2022-11-26T15:06:56.032Z,99778.09
2022-11-26T15:12:05.505Z,99782.00
2022-11-26T15:17:12.559Z,99784.19
2022-11-26T15:22:24.049Z,99778.94
2022-11-26T15:27:31.679Z,99772.69
2022-11-26T15:32:35.090Z,99774.59
2022-11-26T15:37:39.228Z,99769.97
2022-11-26T15:42:41.945Z,99763.81
2022-11-26T15:47:48.037Z,99758.16
2022-11-26T15:52:57.236Z,99755.19
2022-11-26T15:58:03.883Z,99767.00
2022-11-26T16:03:35.475Z,99772.69
2022-11-26T16:08:42.984Z,99766.09
2022-11-26T16:13:46.097Z,99764.34
2022-11-26T16:18:54.897Z,99764.69
2022-11-26T16:24:05.472Z,99765.19
2022-11-26T16:29:10.757Z,99775.34
2022-11-26T16:34:14.857Z,99769.66
2022-11-26T16:39:18.278Z,99782.13
2022-11-26T16:44:21.052Z,99787.75
2022-11-26T16:49:26.554Z,99797.44
2022-11-26T16:54:29.369Z,99791.31
2022-11-26T16:59:32.088Z,99782.72
2022-11-26T17:04:36.305Z,99783.72
2022-11-26T17:09:39.372Z,99774.13
2022-11-26T17:14:42.330Z,99776.59
2022-11-26T17:19:46.458Z,99777.28
2022-11-26T17:24:49.241Z,99776.41
2022-11-26T17:29:52.254Z,99779.75
2022-11-26T17:34:56.460Z,99785.78
2022-11-26T17:39:59.413Z,99785.69
2022-11-26T17:45:02.337Z,99788.88
2022-11-26T17:50:08.302Z,99790.63
2022-11-26T17:55:12.188Z,99797.63
2022-11-26T18:00:18.360Z,99796.47
2022-11-26T18:05:23.366Z,99787.44
2022-11-26T18:10:26.170Z,99788.16
2022-11-26T18:15:29.073Z,99781.88
2022-11-26T18:20:33.248Z,99774.59
2022-11-26T18:25:36.022Z,99770.09
2022-11-26T18:30:38.800Z,99755.81
2022-11-26T18:35:43.508Z,99759.25
2022-11-26T18:40:46.299Z,99760.91
2022-11-26T18:45:49.450Z,99769.59
2022-11-26T18:50:58.493Z,99766.84
2022-11-26T18:56:01.397Z,99774.66
2022-11-26T19:01:13.485Z,99760.50
2022-11-26T19:06:20.544Z,99748.16
2022-11-26T19:11:24.047Z,99733.22
2022-11-26T19:16:27.427Z,99730.44
2022-11-26T19:21:33.736Z,99723.56
2022-11-26T19:26:37.764Z,99721.19
2022-11-26T19:31:40.911Z,99730.13
2022-11-26T19:36:48.506Z,99733.28
2022-11-26T19:41:51.669Z,99750.06
2022-11-26T19:46:54.481Z,99745.69
2022-11-26T19:51:58.693Z,99744.84
2022-11-26T19:57:01.505Z,99744.91
2022-11-26T20:02:04.402Z,99736.00
2022-11-26T20:07:08.803Z,99733.50
2022-11-26T20:12:11.935Z,99732.81
2022-11-26T20:17:14.829Z,99724.81
2022-11-26T20:22:18.987Z,99730.91
2022-11-26T20:27:21.831Z,99737.13
2022-11-26T20:32:24.580Z,99746.97
2022-11-26T20:37:28.931Z,99738.97
2022-11-26T20:42:33.561Z,99750.34
2022-11-26T20:47:36.442Z,99756.84
2022-11-26T20:52:40.616Z,99757.53
2022-11-26T20:57:43.445Z,99760.31
2022-11-26T21:02:46.593Z,99743.47
2022-11-26T21:07:51.817Z,99750.75
2022-11-26T21:12:54.604Z,99742.09
2022-11-26T21:17:57.543Z,99746.44
2022-11-26T21:23:01.698Z,99756.84
2022-11-26T21:28:04.998Z,99764.69
2022-11-26T21:33:09.646Z,99773.63
2022-11-26T21:38:13.933Z,99762.19
2022-11-26T21:43:16.691Z,99749.81
2022-11-26T21:48:19.519Z,99752.25
2022-11-26T21:53:23.806Z,99745.06
2022-11-26T21:58:26.807Z,99731.88
2022-11-26T22:03:29.582Z,99730.16
2022-11-26T22:08:33.721Z,99733.19
2022-11-26T22:13:36.537Z,99735.41
2022-11-26T22:18:40.996Z,99733.59
2022-11-26T22:23:45.811Z,99722.91
2022-11-26T22:28:49.667Z,99714.19
2022-11-26T22:33:56.184Z,99716.03
2022-11-26T22:39:01.900Z,99708.31
2022-11-26T22:44:05.093Z,99699.75
2022-11-26T22:49:11.953Z,99678.63
2022-11-26T22:54:18.146Z,99677.94
2022-11-26T22:59:20.930Z,99678.91
2022-11-26T23:04:23.964Z,99663.69
2022-11-26T23:09:28.154Z,99658.41
2022-11-26T23:14:30.962Z,99660.53
2022-11-26T23:19:33.821Z,99661.13
2022-11-26T23:24:37.963Z,99658.53
2022-11-26T23:29:40.955Z,99647.19
2022-11-26T23:34:43.880Z,99640.78
2022-11-26T23:39:47.957Z,99629.94
2022-11-26T23:44:50.677Z,99626.84
2022-11-26T23:49:57.178Z,99618.13
2022-11-26T23:55:03.897Z,99599.50
